Home > Products > Valid Products > MTR

000
SAUS43 KDTX 241854 COR
MTRP58
METAR KP58 241851Z AUTO 24003KT 14/07 A2996 RMK AO1 SLP146 T01390072





000
SAUS43 KDTX 241754
MTRP58
METAR KP58 241751Z AUTO VRB03KT 13/07 A2998 RMK AO1 SLP155 T01330072
10133 20056 58013





000
SAUS43 KDTX 241654 COR
MTRP58
METAR KP58 241651Z AUTO 22005KT 13/06 A3001 RMK AO1 SLP165 T01280061





000
SAUS43 KDTX 241552
MTRP58
METAR KP58 241551Z AUTO VRB05KT 13/06 A3002 RMK AO1 SLP170 T01280056





000
SAUS43 KDTX 241454
MTRP58
METAR KP58 241451Z AUTO 23004KT 11/05 A3002 RMK AO1 SLP170 T01110050
58004





000
SAUS43 KDTX 241354
MTRP58
METAR KP58 241351Z AUTO 22007KT 08/04 A3002 RMK AO1 SLP173 T00830039





000
SAUS43 KDTX 241253
MTRP58
METAR KP58 241251Z AUTO 23005KT 06/03 A3004 RMK AO1 SLP179 T00610028





000
SAUS43 KDTX 241152
MTRP58
METAR KP58 241151Z AUTO 23007KT 06/03 A3003 RMK AO1 SLP176 T00610028
10061 20039 58001





000
SAUS43 KDTX 241052
MTRP58
METAR KP58 241051Z AUTO 23007KT 06/03 A3004 RMK AO1 SLP179 T00560028





000
SAUS43 KDTX 241052
MTRP58
METAR KP58 241051Z AUTO 23007KT 06/03 A3004 RMK AO1 SLP179 T00560028





000
SAUS43 KDTX 240954
MTRP58
METAR KP58 240951Z AUTO 22005KT 06/03 A3004 RMK AO1 SLP177 T00560033





000
SAUS43 KDTX 240854
MTRP58
METAR KP58 240851Z AUTO 23004KT 05/03 A3004 RMK AO1 SLP176 T00500033
56009





000
SAUS43 KDTX 240754
MTRP58
METAR KP58 240751Z AUTO 22005KT 05/03 A3005 RMK AO1 SLP179 T00500033





000
SAUS43 KDTX 240653
MTRP58
METAR KP58 240651Z AUTO 23007KT 04/03 A3005 RMK AO1 SLP180 T00440028





000
SAUS43 KDTX 240552
MTRP58
METAR KP58 240551Z AUTO 23005KT 04/03 A3006 RMK AO1 SLP185 T00390028
10050 20022 56008





000
SAUS43 KDTX 240454
MTRP58
METAR KP58 240451Z AUTO 21004KT 04/03 A3007 RMK AO1 SLP188 T00390028
401060000





000
SAUS43 KDTX 240454
MTRP58
METAR KP58 240451Z AUTO 21004KT 04/03 A3007 RMK AO1 SLP188 T00390028
401060000





000
SAUS43 KDTX 240354
MTRP58
METAR KP58 240351Z AUTO 22004KT 03/02 A3007 RMK AO1 SLP190 T00280017





000
SAUS43 KDTX 240354
MTRP58
METAR KP58 240351Z AUTO 22004KT 03/02 A3007 RMK AO1 SLP190 T00280017





000
SAUS43 KDTX 240254
MTRP58
METAR KP58 240251Z AUTO 19003KT 03/02 A3009 RMK AO1 SLP195 T00280017
58003





000
SAUS43 KDTX 240254
MTRP58
METAR KP58 240251Z AUTO 19003KT 03/02 A3009 RMK AO1 SLP195 T00280017
58003





000
SAUS43 KDTX 240154
MTRP58
METAR KP58 240151Z AUTO 00000KT 03/01 A3009 RMK AO1 SLP198 T00280011





000
SAUS43 KDTX 240154
MTRP58
METAR KP58 240151Z AUTO 00000KT 03/01 A3009 RMK AO1 SLP198 T00280011





000
SAUS43 KDTX 240053
MTRP58
METAR KP58 240051Z AUTO 22003KT 03/02 A3009 RMK AO1 SLP199 T00280017





000
SAUS43 KDTX 232354
MTRP58
METAR KP58 232351Z AUTO 00000KT 04/03 A3010 RMK AO1 SLP201 T00390028
10106 20039 58006





000
SAUS43 KDTX 232253
MTRP58
METAR KP58 232251Z AUTO 28003KT 06/03 A3011 RMK AO1 SLP205 T00560033





000
SAUS43 KDTX 232153
MTRP58
METAR KP58 232151Z AUTO 29003KT 09/04 A3013 RMK AO1 SLP208 T00890039





000
SAUS43 KDTX 232153
MTRP58
METAR KP58 232151Z AUTO 29003KT 09/04 A3013 RMK AO1 SLP208 T00890039





000
SAUS43 KDTX 232053 COR
MTRP58
METAR KP58 232051Z AUTO 22003KT 10/04 A3012 RMK AO1 SLP205 T01000039
58022





000
SAUS43 KDTX 231953
MTRP58
METAR KP58 231951Z AUTO 21005KT 10/04 A3014 RMK AO1 SLP214 T01000039





000
SAUS43 KDTX 231953
MTRP58
METAR KP58 231951Z AUTO 21005KT 10/04 A3014 RMK AO1 SLP214 T01000039





000
SAUS43 KDTX 231853
MTRP58
METAR KP58 231851Z AUTO 28005KT 09/04 A3017 RMK AO1 SLP223 T00940044





000
SAUS43 KDTX 231853
MTRP58
METAR KP58 231851Z AUTO 28005KT 09/04 A3017 RMK AO1 SLP223 T00940044





000
SAUS43 KDTX 231755 COR
MTRP58
METAR KP58 231751Z AUTO 31005KT 10/06 A3018 RMK AO1 SLP228 T01000056
10106 20000 58014





000
SAUS43 KDTX 231755 COR
MTRP58
METAR KP58 231751Z AUTO 31005KT 10/06 A3018 RMK AO1 SLP228 T01000056
10106 20000 58014





000
SAUS43 KDTX 231654
MTRP58
METAR KP58 231651Z AUTO 31006KT 09/04 A3021 RMK AO1 SLP236 T00890044





000
SAUS43 KDTX 231654
MTRP58
METAR KP58 231651Z AUTO 31006KT 09/04 A3021 RMK AO1 SLP236 T00890044





000
SAUS43 KDTX 231555 COR
MTRP58
METAR KP58 231551Z AUTO 00000KT 09/04 A3023 RMK AO1 SLP242 T00890044





000
SAUS43 KDTX 231554 COR
MTRP58
METAR KP58 231551Z AUTO 00000KT 09/04 A3023 RMK AO1 SLP242 T00890044





000
SAUS43 KDTX 231453 COR
MTRP58
METAR KP58 231451Z AUTO 29005KT 09/04 A3023 RMK AO1 SLP242 T00890044
51002





000
SAUS43 KDTX 231453 COR
MTRP58
METAR KP58 231451Z AUTO 29005KT 09/04 A3023 RMK AO1 SLP242 T00890044
51002





000
SAUS43 KDTX 231354
MTRP58
METAR KP58 231351Z AUTO 30003KT 08/04 A3022 RMK AO1 SLP240 T00780044





000
SAUS43 KDTX 231254
MTRP58
METAR KP58 231251Z AUTO 00000KT 02/01 A3023 RMK AO1 SLP242 T00170006





000
SAUS43 KDTX 231154
MTRP58
METAR KP58 231151Z AUTO 26003KT 01/00 A3022 RMK AO1 SLP241 T00060000
10022 20000 56007





000
SAUS43 KDTX 231053
MTRP58
METAR KP58 231051Z AUTO 26003KT 01/M01 A3023 RMK AO1 SLP244
T00061006





000
SAUS43 KDTX 230954
MTRP58
METAR KP58 230951Z AUTO 00000KT 01/00 A3023 RMK AO1 SLP244 T00060000





000
SAUS43 KDTX 230954
MTRP58
METAR KP58 230951Z AUTO 00000KT 01/00 A3023 RMK AO1 SLP244 T00060000





000
SAUS43 KDTX 230854
MTRP58
METAR KP58 230851Z AUTO 26004KT 01/00 A3024 RMK AO1 SLP248 T00110000
58006





000
SAUS43 KDTX 230754
MTRP58
METAR KP58 230751Z AUTO 26004KT 01/01 A3025 RMK AO1 SLP251 T00110006





000
SAUS43 KDTX 230754
MTRP58
METAR KP58 230751Z AUTO 26004KT 01/01 A3025 RMK AO1 SLP251 T00110006





000
SAUS43 KDTX 230654
MTRP58
METAR KP58 230651Z AUTO 25003KT 01/00 A3026 RMK AO1 SLP255 T00110000





000
SAUS43 KDTX 230554
MTRP58
METAR KP58 230551Z AUTO 25003KT 01/01 A3026 RMK AO1 SLP255 T00110006
10078 20011 56008





000
SAUS43 KDTX 230554
MTRP58
METAR KP58 230551Z AUTO 25003KT 01/01 A3026 RMK AO1 SLP255 T00110006
10078 20011 56008





000
SAUS43 KDTX 230454
MTRP58
METAR KP58 230451Z AUTO 00000KT 01/01 A3027 RMK AO1 SLP256 T00110006
401060011





000
SAUS43 KDTX 230454
MTRP58
METAR KP58 230451Z AUTO 00000KT 01/01 A3027 RMK AO1 SLP256 T00110006
401060011





000
SAUS43 KDTX 230355 COR
MTRP58
METAR KP58 230351Z AUTO 26005KT 02/01 A3028 RMK AO1 SLP261 T00170006





000
SAUS43 KDTX 230355 COR
MTRP58
METAR KP58 230351Z AUTO 26005KT 02/01 A3028 RMK AO1 SLP261 T00170006





000
SAUS43 KDTX 230354
MTRP58
METAR KP58 230351Z AUTO 26005KT 02/01 A3028 RMK AO1 S,jz
REQ ARBMTRP58





000
SAUS43 KDTX 230253
MTRP58
METAR KP58 230251Z AUTO 00000KT 02/01 A3029 RMK AO1 SLP263 T00220011
57005





000
SAUS43 KDTX 230154
MTRP58
METAR KP58 230151Z AUTO 04006KT 08/04 A3029 RMK AO1 SLP262 T00780039





000
SAUS43 KDTX 230154
MTRP58
METAR KP58 230151Z AUTO 04006KT 08/04 A3029 RMK AO1 SLP262 T00780039





000
SAUS43 KDTX 230053
MTRP58
METAR KP58 230051Z AUTO 04006KT 08/04 A3030 RMK AO1 SLP264 T00780039





000
SAUS43 KDTX 230053
MTRP58
METAR KP58 230051Z AUTO 04006KT 08/04 A3030 RMK AO1 SLP264 T00780039





000
SAUS43 KDTX 222354
MTRP58
METAR KP58 222351Z AUTO 04009KT 07/03 A3030 RMK AO1 SLP266 T00720033
10100 20072 56007





000
SAUS43 KDTX 222354
MTRP58
METAR KP58 222351Z AUTO 04009KT 07/03 A3030 RMK AO1 SLP266 T00720033
10100 20072 56007





000
SAUS43 KDTX 222254
MTRP58
METAR KP58 222251Z AUTO 02008KT 07/03 A3031 RMK AO1 SLP268 T00720033





000
SAUS43 KDTX 222254
MTRP58
METAR KP58 222251Z AUTO 02008KT 07/03 A3031 RMK AO1 SLP268 T00720033





000
SAUS43 KDTX 222154 COR
MTRP58
METAR KP58 222151Z AUTO 00000KT 08/03 A3031 RMK AO1 SLP268 T00830033





000
SAUS43 KDTX 222054
MTRP58
METAR KP58 222051Z AUTO 00000KT 08/03 A3032 RMK AO1 SLP273 T00830033
56004





000
SAUS43 KDTX 221955 COR
MTRP58
METAR KP58 221951Z AUTO 00000KT 09/04 A3032 RMK AO1 SLP273 T00940039





000
SAUS43 KDTX 221954
MTRP58
METAR KP58 221951Z AUTO 00000KT 09/04 A3032 RMK AO1 SLP273 T00940039





000
SAUS43 KDTX 221854 COR
MTRP58
METAR KP58 221851Z AUTO 02009KT 09/04 A3032 RMK AO1 SLP271 T00890039





000
SAUS43 KDTX 221754
MTRP58
METAR KP58 221751Z AUTO VRB04KT 09/04 A3034 RMK AO1 SLP276 T00940039
10106 20078 58006





000
SAUS43 KDTX 221754
MTRP58
METAR KP58 221751Z AUTO VRB04KT 09/04 A3034 RMK AO1 SLP276 T00940039
10106 20078 58006





000
SAUS43 KDTX 221654
MTRP58
METAR KP58 221651Z AUTO 36005KT 09/04 A3035 RMK AO1 SLP282 T00940039





000
SAUS43 KDTX 221654
MTRP58
METAR KP58 221651Z AUTO 36005KT 09/04 A3035 RMK AO1 SLP282 T00940039





000
SAUS43 KDTX 221554
MTRP58
METAR KP58 221551Z AUTO 01009KT 08/04 A3036 RMK AO1 SLP284 T00830039





000
SAUS43 KDTX 221554
MTRP58
METAR KP58 221551Z AUTO 01009KT 08/04 A3036 RMK AO1 SLP284 T00830039





000
SAUS43 KDTX 221454
MTRP58
METAR KP58 221451Z AUTO 03010KT 08/04 A3035 RMK AO1 SLP283 T00830039
51013





000
SAUS43 KDTX 221354 COR
MTRP58
METAR KP58 221351Z AUTO 03010KT 08/04 A3034 RMK AO1 SLP279 T00830039





000
SAUS43 KDTX 221252
MTRP58
METAR KP58 221251Z AUTO 04010KT 08/04 A3033 RMK AO1 SLP277 T00780039





000
SAUS43 KDTX 221154
MTRP58
METAR KP58 221151Z AUTO 01007KT 08/04 A3031 RMK AO1 SLP271 T00780039
10078 20072 51019





000
SAUS43 KDTX 221054
MTRP58
METAR KP58 221051Z AUTO 02010KT 08/04 A3030 RMK AO1 SLP264 T00780039





000
SAUS43 KDTX 220954
MTRP58
METAR KP58 220951Z AUTO 03012KT 08/04 A3028 RMK AO1 SLP259 T00780039





000
SAUS43 KDTX 220954
MTRP58
METAR KP58 220951Z AUTO 03012KT 08/04 A3028 RMK AO1 SLP259 T00780039





000
SAUS43 KDTX 220852
MTRP58
METAR KP58 220851Z AUTO 04013KT 08/04 A3026 RMK AO1 SLP251 T00780039
51005





000
SAUS43 KDTX 220753
MTRP58
METAR KP58 220751Z AUTO 05011KT 08/04 A3026 RMK AO1 SLP250 T00780039





000
SAUS43 KDTX 220654
MTRP58
METAR KP58 220651Z AUTO 04015KT 08/04 A3025 RMK AO1 SLP248 T00780039





000
SAUS43 KDTX 220552
MTRP58
METAR KP58 220551Z AUTO 04014KT 08/04 A3024 RMK AO1 SLP246 T00780039
10078 20078 53002





000
SAUS43 KDTX 220552
MTRP58
METAR KP58 220551Z AUTO 04014KT 08/04 A3024 RMK AO1 SLP246 T00780039
10078 20078 53002





000
SAUS43 KDTX 220454
MTRP58
METAR KP58 220451Z AUTO 04017KT 08/04 A3024 RMK AO1 SLP245 T00780039
400940078





000
SAUS43 KDTX 220454
MTRP58
METAR KP58 220451Z AUTO 04017KT 08/04 A3024 RMK AO1 SLP245 T00780039
400940078





000
SAUS43 KDTX 220353
MTRP58
METAR KP58 220351Z AUTO 04020KT 08/04 A3024 RMK AO1 SLP244 T00780039





000
SAUS43 KDTX 220254
MTRP58
METAR KP58 220251Z AUTO 03020KT 08/04 A3024 RMK AO1 SLP243 T00780039
51016





000
SAUS43 KDTX 220254
MTRP58
METAR KP58 220251Z AUTO 03020KT 08/04 A3024 RMK AO1 SLP243 T00780039
51016





000
SAUS43 KDTX 220154
MTRP58
METAR KP58 220151Z AUTO 02017G23KT 08/03 A3023 RMK AO1 PK WND
03026/0056 SLP240 T00780028





000
SAUS43 KDTX 220054
MTRP58
METAR KP58 220051Z AUTO 02016G24KT 08/03 A3021 RMK AO1 PK WND
03026/0022 SLP234 T00780028





000
SAUS43 KDTX 212354
MTRP58
METAR KP58 212351Z AUTO 01015G22KT 08/03 A3019 RMK AO1 SLP226
T00780028 10078 20078 51020





000
SAUS43 KDTX 212254
MTRP58
METAR KP58 212251Z AUTO 01014G23KT 08/02 A3017 RMK AO1 SLP221
T00780022





000
SAUS43 KDTX 212254
MTRP58
METAR KP58 212251Z AUTO 01014G23KT 08/02 A3017 RMK AO1 SLP221
T00780022





000
SAUS43 KDTX 212052
MTRP58
METAR KP58 212051Z AUTO 01017G24KT 08/03 A3013 RMK AO1 SLP206
T00780028 53018





000
SAUS43 KDTX 211954
MTRP58
METAR KP58 211951Z AUTO 36012G27KT 08/03 A3011 RMK AO1 PK WND
01027/1909 SLP199 T00780028





    US Dept of Commerce
    National Oceanic and Atmospheric Administration
    National Weather Service
    1325 East West Highway
    Silver Spring, MD 20910
    Page Author: NWS Internet Services Team
Disclaimer
Information Quality
Credits
Glossary
Privacy Policy
Freedom of Information Act (FOIA)
About Us
Career Opportunities